createdAt,value
2022-11-24T00:04:54.243Z,10.68
2022-11-24T00:09:56.859Z,11.98
2022-11-24T00:14:59.479Z,12.45
2022-11-24T00:20:02.109Z,11.48
2022-11-24T00:25:06.322Z,12.10
2022-11-24T00:30:10.000Z,11.02
2022-11-24T00:35:12.679Z,12.13
2022-11-24T00:40:15.305Z,11.77
2022-11-24T00:45:17.946Z,11.57
2022-11-24T00:50:21.292Z,11.70
2022-11-24T00:55:23.941Z,11.40
2022-11-24T01:00:26.681Z,11.52
2022-11-24T01:05:29.296Z,11.43
2022-11-24T01:10:31.979Z,11.77
2022-11-24T01:15:37.700Z,10.35
2022-11-24T01:20:40.287Z,11.05
2022-11-24T01:25:42.963Z,10.40
2022-11-24T01:30:47.231Z,11.10
2022-11-24T01:35:49.884Z,10.05
2022-11-24T01:41:16.363Z,11.40
2022-11-24T01:46:39.074Z,10.93
2022-11-24T01:52:07.495Z,12.73
2022-11-24T01:57:20.467Z,11.75
2022-11-24T02:02:24.944Z,11.10
2022-11-24T02:07:27.711Z,11.20
2022-11-24T02:12:31.654Z,11.55
2022-11-24T02:17:54.273Z,11.40
2022-11-24T02:23:17.166Z,10.47
2022-11-24T02:28:22.990Z,11.75
2022-11-24T02:33:26.127Z,10.93
2022-11-24T02:38:33.625Z,11.70
2022-11-24T02:43:42.264Z,11.38
2022-11-24T02:48:44.974Z,11.23
2022-11-24T02:53:47.666Z,12.80
2022-11-24T02:58:50.374Z,10.50
2022-11-24T03:03:53.030Z,11.70
2022-11-24T03:08:55.673Z,11.13
2022-11-24T03:13:58.340Z,11.07
2022-11-24T03:19:01.859Z,10.03
2022-11-24T03:24:04.773Z,10.03
2022-11-24T03:29:07.612Z,9.80
2022-11-24T03:34:10.322Z,9.93
2022-11-24T03:39:13.023Z,10.57
2022-11-24T03:44:15.791Z,10.20
2022-11-24T03:49:18.524Z,9.30
2022-11-24T03:54:21.243Z,9.37
2022-11-24T03:59:23.908Z,10.20
2022-11-24T04:04:26.566Z,10.10
2022-11-24T04:09:29.281Z,11.17
2022-11-24T04:14:32.104Z,8.13
2022-11-24T04:19:35.131Z,8.60
2022-11-24T04:24:37.700Z,20.33
2022-11-24T04:29:40.443Z,9.63
2022-11-24T04:34:43.331Z,9.90
2022-11-24T04:39:46.467Z,9.13
2022-11-24T04:44:49.036Z,9.30
2022-11-24T04:49:52.371Z,8.50
2022-11-24T04:54:55.532Z,8.47
2022-11-24T04:59:58.060Z,8.37
2022-11-24T05:05:00.718Z,9.10
2022-11-24T05:10:22.370Z,8.57
2022-11-24T05:15:25.252Z,9.18
2022-11-24T05:20:27.819Z,11.93
2022-11-24T05:25:30.859Z,9.10
2022-11-24T05:30:33.397Z,10.37
2022-11-24T05:35:36.547Z,9.83
2022-11-24T05:40:39.074Z,9.13
2022-11-24T05:45:42.059Z,9.20
2022-11-24T05:50:44.779Z,9.30
2022-11-24T05:55:47.297Z,9.63
2022-11-24T06:00:50.153Z,8.87
2022-11-24T06:05:52.796Z,9.23
2022-11-24T06:11:17.185Z,9.47
2022-11-24T06:16:19.892Z,9.60
2022-11-24T06:21:22.503Z,10.37
2022-11-24T06:26:25.151Z,9.50
2022-11-24T06:31:27.689Z,9.87
2022-11-24T06:36:30.265Z,10.03
2022-11-24T06:41:32.917Z,11.00
2022-11-24T06:46:35.399Z,9.70
2022-11-24T06:51:37.922Z,9.60
2022-11-24T06:56:40.459Z,10.50
2022-11-24T07:01:43.221Z,9.90
2022-11-24T07:06:45.982Z,11.43
2022-11-24T07:11:48.480Z,10.43
2022-11-24T07:16:51.147Z,9.87
2022-11-24T07:21:53.903Z,10.02
2022-11-24T07:26:56.519Z,11.23
2022-11-24T07:32:05.005Z,9.70
2022-11-24T07:37:08.105Z,10.63
2022-11-24T07:42:11.561Z,10.13
2022-11-24T07:47:14.201Z,11.07
2022-11-24T07:52:16.786Z,10.77
2022-11-24T07:57:19.353Z,10.85
2022-11-24T08:02:22.041Z,10.82
2022-11-24T08:07:24.781Z,11.00
2022-11-24T08:12:27.612Z,11.63
2022-11-24T08:17:30.391Z,9.82
2022-11-24T08:22:32.936Z,10.43
2022-11-24T08:27:35.495Z,9.77
2022-11-24T08:32:38.125Z,10.27
2022-11-24T08:37:40.747Z,10.13
2022-11-24T08:42:43.339Z,10.25
2022-11-24T08:47:45.869Z,10.95
2022-11-24T08:52:48.604Z,9.07
2022-11-24T08:57:51.251Z,9.90
2022-11-24T09:02:58.350Z,9.00
2022-11-24T09:08:00.834Z,10.63
2022-11-24T09:13:03.920Z,9.88
2022-11-24T09:18:06.449Z,8.70
2022-11-24T09:23:09.951Z,10.32
2022-11-24T09:28:12.548Z,9.52
2022-11-24T09:33:15.095Z,10.07
2022-11-24T09:38:17.650Z,10.35
2022-11-24T09:43:45.944Z,10.10
2022-11-24T09:48:53.035Z,9.25
2022-11-24T09:54:08.419Z,9.60
2022-11-24T09:59:16.785Z,11.35
2022-11-24T10:04:25.367Z,11.82
2022-11-24T10:09:46.666Z,12.20
2022-11-24T10:14:59.944Z,12.10
2022-11-24T10:20:09.426Z,11.82
2022-11-24T10:25:12.492Z,11.98
2022-11-24T10:30:21.289Z,13.48
2022-11-24T10:35:38.422Z,11.55
2022-11-24T10:41:13.513Z,12.63
2022-11-24T10:46:28.990Z,13.18
2022-11-24T10:52:03.400Z,12.18
2022-11-24T10:57:06.061Z,11.47
2022-11-24T11:02:36.487Z,10.97
2022-11-24T11:07:39.241Z,10.60
2022-11-24T11:12:44.676Z,11.23
2022-11-24T11:17:52.403Z,10.47
2022-11-24T11:22:56.585Z,9.77
2022-11-24T11:28:31.580Z,10.20
2022-11-24T11:39:00.006Z,12.77
2022-11-24T11:44:29.996Z,12.10
2022-11-24T11:49:32.943Z,14.27
2022-11-24T11:55:01.720Z,15.10
2022-11-24T12:00:05.815Z,15.50
2022-11-24T12:05:53.771Z,14.03
2022-11-24T12:11:09.030Z,15.23
2022-11-24T12:16:39.275Z,13.27
2022-11-24T12:21:47.857Z,12.70
2022-11-24T12:26:58.141Z,13.93
2022-11-24T12:32:09.990Z,13.50
2022-11-24T12:37:40.442Z,14.57
2022-11-24T12:42:58.904Z,14.73
2022-11-24T12:48:33.864Z,16.30
2022-11-24T12:53:38.455Z,15.77
2022-11-24T12:58:51.088Z,16.23
2022-11-24T13:04:08.884Z,16.53
2022-11-24T13:09:13.452Z,17.33
2022-11-24T13:14:18.140Z,17.30
2022-11-24T13:19:33.834Z,18.70
2022-11-24T13:24:39.363Z,16.30
2022-11-24T13:29:43.207Z,19.57
2022-11-24T13:34:46.008Z,17.23
2022-11-24T13:39:52.880Z,16.67
2022-11-24T13:45:02.116Z,15.40
2022-11-24T13:50:13.850Z,17.33
2022-11-24T13:55:16.526Z,15.33
2022-11-24T14:00:58.409Z,13.50
2022-11-24T14:06:02.304Z,13.30
2022-11-24T14:11:14.842Z,12.90
2022-11-24T14:16:20.906Z,11.83
2022-11-24T14:21:31.251Z,12.93
2022-11-24T14:26:37.376Z,12.70
2022-11-24T14:31:40.254Z,11.20
2022-11-24T14:36:43.428Z,11.97
2022-11-24T14:42:17.605Z,11.83
2022-11-24T14:47:37.527Z,9.30
2022-11-24T14:52:54.229Z,12.23
2022-11-24T14:58:00.826Z,10.83
2022-11-24T15:03:18.900Z,10.87
2022-11-24T15:08:26.751Z,10.93
2022-11-24T15:13:33.641Z,11.50
2022-11-24T15:18:57.027Z,10.60
2022-11-24T15:24:17.188Z,11.47
2022-11-24T15:29:19.837Z,12.17
2022-11-24T15:34:22.479Z,12.27
2022-11-24T15:39:25.187Z,13.27
2022-11-24T15:44:30.174Z,13.17
2022-11-24T15:49:34.111Z,12.77
2022-11-24T15:54:37.242Z,12.17
2022-11-24T15:59:39.855Z,11.93
2022-11-24T16:04:42.836Z,11.90
2022-11-24T16:09:45.628Z,13.30
2022-11-24T16:14:48.286Z,12.27
2022-11-24T16:20:00.148Z,13.03
2022-11-24T16:25:04.473Z,13.37
2022-11-24T16:30:07.900Z,12.53
2022-11-24T16:35:10.766Z,17.20
2022-11-24T16:40:13.482Z,16.27
2022-11-24T16:45:16.461Z,14.90
2022-11-24T16:50:18.971Z,12.97
2022-11-24T16:55:21.501Z,12.57
2022-11-24T17:00:24.253Z,11.77
2022-11-24T17:05:32.601Z,12.20
2022-11-24T17:10:38.491Z,10.17
2022-11-24T17:15:47.230Z,10.87
2022-11-24T17:21:10.108Z,12.20
2022-11-24T17:26:25.159Z,11.10
2022-11-24T17:31:36.034Z,11.93
2022-11-24T17:36:42.551Z,12.40
2022-11-24T17:41:45.347Z,12.60
2022-11-24T17:46:50.789Z,13.47
2022-11-24T17:57:10.952Z,10.40
2022-11-24T18:02:13.539Z,13.53
2022-11-24T18:07:16.440Z,11.73
2022-11-24T18:12:19.101Z,12.20
2022-11-24T18:17:21.686Z,11.70
2022-11-24T18:22:49.854Z,10.30
2022-11-24T18:27:49.164Z,11.97
2022-11-24T18:32:51.766Z,11.37
2022-11-24T18:37:54.945Z,9.77
2022-11-24T18:42:57.550Z,11.67
2022-11-24T18:48:00.158Z,12.37
2022-11-24T18:53:02.786Z,12.80
2022-11-24T18:58:06.443Z,9.47
2022-11-24T19:03:09.639Z,11.63
2022-11-24T19:08:12.165Z,11.90
2022-11-24T19:13:14.846Z,12.57
2022-11-24T19:18:18.199Z,12.33
2022-11-24T19:23:20.839Z,10.50
2022-11-24T19:28:25.579Z,10.80
2022-11-24T19:33:28.260Z,10.73
2022-11-24T19:38:32.913Z,10.13
2022-11-24T19:43:35.911Z,9.93
2022-11-24T19:48:43.794Z,10.93
2022-11-24T19:53:47.809Z,10.10
2022-11-24T19:58:51.723Z,10.43
2022-11-24T20:04:06.081Z,9.03
2022-11-24T20:09:10.936Z,8.60
2022-11-24T20:14:15.572Z,8.43
2022-11-24T20:19:18.876Z,7.53
2022-11-24T20:24:24.900Z,8.17
2022-11-24T20:29:32.252Z,8.50
2022-11-24T20:34:36.576Z,9.07
2022-11-24T20:39:40.458Z,7.67
2022-11-24T20:44:43.673Z,6.93
2022-11-24T20:49:46.179Z,7.43
2022-11-24T20:54:49.040Z,5.77
2022-11-24T20:59:52.661Z,5.70
2022-11-24T21:04:55.242Z,6.87
2022-11-24T21:09:59.136Z,5.77
2022-11-24T21:15:01.988Z,5.93
2022-11-24T21:20:06.450Z,5.70
2022-11-24T21:25:09.375Z,5.87
2022-11-24T21:30:12.679Z,7.07
2022-11-24T21:35:15.532Z,6.60
2022-11-24T21:40:18.257Z,8.10
2022-11-24T21:45:21.101Z,7.90
2022-11-24T21:50:23.927Z,6.97
2022-11-24T21:55:26.929Z,8.27
2022-11-24T22:00:29.708Z,6.50
2022-11-24T22:05:32.295Z,8.40
2022-11-24T22:10:35.070Z,8.47
2022-11-24T22:15:37.683Z,8.07
2022-11-24T22:20:40.307Z,8.60
2022-11-24T22:25:42.857Z,8.37
2022-11-24T22:30:45.477Z,8.30
2022-11-24T22:35:58.193Z,8.40
2022-11-24T22:41:05.378Z,9.20
2022-11-24T22:46:17.045Z,8.03
2022-11-24T22:51:34.753Z,8.43
2022-11-24T22:56:37.387Z,8.23
2022-11-24T23:01:39.955Z,8.70
2022-11-24T23:06:43.093Z,9.10
2022-11-24T23:11:45.657Z,7.57
2022-11-24T23:16:48.253Z,9.03
2022-11-24T23:21:50.916Z,8.23
2022-11-24T23:26:53.490Z,7.20
2022-11-24T23:31:56.665Z,6.77
2022-11-24T23:36:59.218Z,6.20
2022-11-24T23:42:01.845Z,6.07
2022-11-24T23:47:04.566Z,5.10
2022-11-24T23:52:07.108Z,6.60
2022-11-24T23:57:09.609Z,5.80
